Pagrindinis puslapis
METAR-TAF:

METAR-TAF

Oro uostai :

Esmeraldasas, Ekvadoras

platuma: 00-58-43N, ilguma: 079-37-36W, Aukštis: 10 m

Dabartinis oras

Ataskaita buvo paskelbta 1 valandą ir 2 minutes, ne 15:00 UTC
Vėjas 6 kt iš Pietų/Pietvakarių
Temperatūra 27°C
Drėgmė 79%
Slėgis 1015 hPa
Matomumas 10 km arba daugiau
Išsisklaidę debesys ne aukštis 2000 ft
Su prošvaistėmis ne aukštis 8000 ft

METAR: SETN 221500Z 20006KT 9999 SCT020 BKN080 27/23 Q1015 A2997

Laikas: 11:02 (16:02 UTC)


TAF: trūkstamas

Orai ataskaitas ir orų prognozės (METAR, TAF).

turimą stotys yra geltonos ir raudonos taškus žemėlapyje.

Perkelti pele per norėdami pamatyti stoties vardą.

Tada spustelėkite, norėdami matyti oro stebėjimo ir prognozės.

Norėdami pakeisti žemėlapį: spustelėkite ant žalios mygtukų su juodo kryžiaus žemyn,; žalią mygtuką su brūkšneliu, jei norite nutolinti; arba žalių rodyklių gretimoms žemėlapius.


METAR-TAF: